createdAt,value
2018-04-15T00:00:00.203Z,94.10
2018-04-15T00:02:28.571Z,93.90
2018-04-15T00:04:56.807Z,93.90
2018-04-15T00:07:25.055Z,93.90
2018-04-15T00:09:54.354Z,94.00
2018-04-15T00:12:22.644Z,94.00
2018-04-15T00:14:51.651Z,94.30
2018-04-15T00:17:19.886Z,94.30
2018-04-15T00:19:48.131Z,94.20
2018-04-15T00:22:16.376Z,94.20
2018-04-15T00:24:44.611Z,94.40
2018-04-15T00:27:12.854Z,94.50
2018-04-15T00:29:41.086Z,94.60
2018-04-15T00:32:09.331Z,94.60
2018-04-15T00:34:37.569Z,94.60
2018-04-15T00:37:05.810Z,94.30
2018-04-15T00:39:34.042Z,94.30
2018-04-15T00:42:02.790Z,94.40
2018-04-15T00:44:31.023Z,94.30
2018-04-15T00:46:59.280Z,94.20
2018-04-15T00:49:27.522Z,94.20
2018-04-15T00:51:55.747Z,94.30
2018-04-15T00:54:24.763Z,94.20
2018-04-15T00:56:52.998Z,94.20
2018-04-15T00:59:21.234Z,94.20
2018-04-15T01:01:49.467Z,94.30
2018-04-15T01:04:17.716Z,94.20
2018-04-15T01:06:46.297Z,94.30
2018-04-15T01:09:14.515Z,94.30
2018-04-15T01:11:42.746Z,94.50
2018-04-15T01:14:11.000Z,94.50
2018-04-15T01:16:39.234Z,94.60
2018-04-15T01:19:07.489Z,94.70
2018-04-15T01:21:36.487Z,94.70
2018-04-15T01:24:04.744Z,94.70
2018-04-15T01:26:34.039Z,94.80
2018-04-15T01:29:03.060Z,94.80
2018-04-15T01:31:31.295Z,94.80
2018-04-15T01:33:59.538Z,94.80
2018-04-15T01:36:27.779Z,94.80
2018-04-15T01:38:56.329Z,94.90
2018-04-15T01:41:24.552Z,94.80
2018-04-15T01:43:52.799Z,94.70
2018-04-15T01:46:21.796Z,94.80
2018-04-15T01:48:50.051Z,94.80
2018-04-15T01:51:19.059Z,94.80
2018-04-15T01:53:47.291Z,94.80
2018-04-15T01:56:15.544Z,94.80
2018-04-15T01:58:43.779Z,94.70
2018-04-15T02:01:12.036Z,94.60
2018-04-15T02:03:41.039Z,94.70
2018-04-15T02:06:10.051Z,94.70
2018-04-15T02:08:38.290Z,94.70
2018-04-15T02:11:07.322Z,94.50
2018-04-15T02:13:35.563Z,94.60
2018-04-15T02:16:04.583Z,94.60
2018-04-15T02:18:32.819Z,94.60
2018-04-15T02:21:01.851Z,94.60
2018-04-15T02:23:30.086Z,94.60
2018-04-15T02:25:59.104Z,94.80
2018-04-15T02:28:27.351Z,94.80
2018-04-15T02:30:56.371Z,94.60
2018-04-15T02:33:24.611Z,94.60
2018-04-15T02:35:52.866Z,94.60
2018-04-15T02:38:21.107Z,94.70
2018-04-15T02:40:49.369Z,94.70
2018-04-15T02:43:17.597Z,94.70
2018-04-15T02:45:45.854Z,94.70
2018-04-15T02:48:14.087Z,94.70
2018-04-15T02:50:42.339Z,94.90
2018-04-15T02:53:11.334Z,94.30
2018-04-15T02:55:40.355Z,94.20
2018-04-15T02:58:08.598Z,94.20
2018-04-15T03:00:37.891Z,93.80
2018-04-15T03:03:06.128Z,93.80
2018-04-15T03:08:08.904Z,93.70
2018-04-15T03:10:37.162Z,93.50
2018-04-15T03:13:05.402Z,93.50
2018-04-15T03:15:33.636Z,93.40
2018-04-15T03:18:01.884Z,93.40
2018-04-15T03:20:30.112Z,93.20
2018-04-15T03:22:58.359Z,93.20
2018-04-15T03:25:27.081Z,93.10
2018-04-15T03:27:55.303Z,93.20
2018-04-15T03:30:23.543Z,93.30
2018-04-15T03:32:52.552Z,93.10
2018-04-15T03:35:20.783Z,93.10
2018-04-15T03:37:49.032Z,93.00
2018-04-15T03:40:17.271Z,93.10
2018-04-15T03:42:45.519Z,93.10
2018-04-15T03:45:13.751Z,92.90
2018-04-15T03:47:41.995Z,92.90
2018-04-15T03:50:10.222Z,93.00
2018-04-15T03:52:38.475Z,93.20
2018-04-15T03:55:06.703Z,93.10
2018-04-15T03:57:35.715Z,92.90
2018-04-15T04:00:03.947Z,92.90
2018-04-15T04:02:32.204Z,92.90
2018-04-15T04:05:00.434Z,92.60
2018-04-15T04:07:28.680Z,92.60
2018-04-15T04:09:57.679Z,92.80
2018-04-15T04:12:26.682Z,92.60
2018-04-15T04:14:54.911Z,92.60
2018-04-15T04:20:41.255Z,92.80
2018-04-15T04:23:22.239Z,92.60
2018-04-15T04:26:06.108Z,92.60
2018-04-15T04:28:34.356Z,92.60
2018-04-15T04:31:02.592Z,92.70
2018-04-15T04:33:30.838Z,92.90
2018-04-15T04:35:59.082Z,93.00
2018-04-15T04:38:27.334Z,93.20
2018-04-15T04:40:56.334Z,93.80
2018-04-15T04:43:25.367Z,93.70
2018-04-15T04:45:53.599Z,93.80
2018-04-15T04:48:22.680Z,94.40
2018-04-15T04:50:50.914Z,94.30
2018-04-15T04:53:19.148Z,94.30
2018-04-15T04:55:48.199Z,94.60
2018-04-15T04:58:16.432Z,94.50
2018-04-15T05:00:44.683Z,94.80
2018-04-15T05:03:13.682Z,94.90
2018-04-15T05:05:42.700Z,95.20
2018-04-15T05:08:10.926Z,95.20
2018-04-15T05:10:39.943Z,96.00
2018-04-15T05:13:08.177Z,95.50
2018-04-15T05:15:36.427Z,95.50
2018-04-15T05:18:04.684Z,95.20
2018-04-15T05:20:32.926Z,95.00
2018-04-15T05:23:01.933Z,95.10
2018-04-15T05:25:30.188Z,95.10
2018-04-15T05:27:59.187Z,95.10
2018-04-15T05:30:27.444Z,95.10
2018-04-15T05:32:56.443Z,95.60
2018-04-15T05:35:25.467Z,95.40
2018-04-15T05:37:53.706Z,95.40
2018-04-15T05:40:22.744Z,95.60
2018-04-15T05:42:50.982Z,95.60
2018-04-15T05:45:20.007Z,95.80
2018-04-15T05:47:48.247Z,95.80
2018-04-15T05:50:17.274Z,95.90
2018-04-15T05:52:45.510Z,95.90
2018-04-15T05:55:14.535Z,95.90
2018-04-15T05:57:42.770Z,95.90
2018-04-15T06:00:11.771Z,95.70
2018-04-15T06:02:40.787Z,95.60
2018-04-15T06:05:09.028Z,95.50
2018-04-15T06:07:38.043Z,95.70
2018-04-15T06:10:06.285Z,95.70
2018-04-15T06:12:34.637Z,95.90
2018-04-15T06:15:02.867Z,95.80
2018-04-15T06:17:31.115Z,95.60
2018-04-15T06:20:00.111Z,95.50
2018-04-15T06:22:29.122Z,95.60
2018-04-15T06:24:57.363Z,95.60
2018-04-15T06:27:25.619Z,95.70
2018-04-15T06:29:53.855Z,95.70
2018-04-15T06:32:22.121Z,95.60
2018-04-15T06:34:50.356Z,95.60
2018-04-15T06:37:18.602Z,95.90
2018-04-15T06:39:46.839Z,95.90
2018-04-15T06:42:15.091Z,95.90
2018-04-15T06:44:44.091Z,96.40
2018-04-15T06:47:13.114Z,96.50
2018-04-15T06:49:41.346Z,96.50
2018-04-15T06:52:10.371Z,96.60
2018-04-15T06:54:39.114Z,96.60
2018-04-15T06:57:07.344Z,96.70
2018-04-15T06:59:35.647Z,96.60
2018-04-15T07:02:03.906Z,96.60
2018-04-15T07:04:32.147Z,96.50
2018-04-15T07:07:00.392Z,96.60
2018-04-15T07:09:29.397Z,96.80
2018-04-15T07:11:58.419Z,96.90
2018-04-15T07:14:26.655Z,96.90
2018-04-15T07:16:55.663Z,97.40
2018-04-15T07:19:23.922Z,97.10
2018-04-15T07:21:52.928Z,97.10
2018-04-15T07:24:21.182Z,97.40
2018-04-15T07:26:50.178Z,97.20
2018-04-15T07:29:19.203Z,97.30
2018-04-15T07:31:47.466Z,97.30
2018-04-15T07:34:15.926Z,97.40
2018-04-15T07:36:44.491Z,97.40
2018-04-15T07:39:13.892Z,97.70
2018-04-15T07:41:43.191Z,97.70
2018-04-15T07:44:11.676Z,97.70
2018-04-15T07:46:40.969Z,98.00
2018-04-15T07:49:10.167Z,98.10
2018-04-15T07:51:39.363Z,98.10
2018-04-15T07:54:08.686Z,98.10
2018-04-15T07:56:37.143Z,98.10
2018-04-15T07:59:06.445Z,98.00
2018-04-15T08:01:34.956Z,98.00
2018-04-15T08:04:04.139Z,98.00
2018-04-15T08:06:33.376Z,97.90
2018-04-15T08:09:03.653Z,97.40
2018-04-15T08:11:33.053Z,97.30
2018-04-15T08:14:02.574Z,97.30
2018-04-15T08:16:31.838Z,97.40
2018-04-15T08:19:00.930Z,97.20
2018-04-15T08:21:30.303Z,97.20
2018-04-15T08:23:59.589Z,97.20
2018-04-15T08:26:30.542Z,97.50
2018-04-15T08:29:00.870Z,97.00
2018-04-15T08:31:29.986Z,97.00
2018-04-15T08:34:00.158Z,97.10
2018-04-15T08:36:29.632Z,97.00
2018-04-15T08:39:00.816Z,97.00
2018-04-15T08:41:30.109Z,97.00
2018-04-15T08:43:59.696Z,97.30
2018-04-15T08:46:28.767Z,97.00
2018-04-15T08:48:58.113Z,97.00
2018-04-15T08:51:27.677Z,97.20
2018-04-15T08:53:57.049Z,97.00
2018-04-15T08:56:26.449Z,96.80
2018-04-15T08:58:55.957Z,97.10
2018-04-15T09:01:25.150Z,96.80
2018-04-15T09:03:54.819Z,96.90
2018-04-15T09:06:24.130Z,96.80
2018-04-15T09:08:55.151Z,96.80
2018-04-15T09:11:24.596Z,96.80
2018-04-15T09:13:54.958Z,97.00
2018-04-15T09:16:24.679Z,97.00
2018-04-15T09:18:55.914Z,97.10
2018-04-15T09:21:25.657Z,97.10
2018-04-15T09:23:54.774Z,96.90
2018-04-15T09:29:00.929Z,96.80
2018-04-15T09:31:30.614Z,96.80
2018-04-15T09:34:00.371Z,96.70
2018-04-15T09:36:31.184Z,96.70
2018-04-15T09:39:00.331Z,96.70
2018-04-15T09:41:30.208Z,96.50
2018-04-15T09:44:01.222Z,96.40
2018-04-15T09:46:30.238Z,96.40
2018-04-15T09:49:00.192Z,96.80
2018-04-15T09:51:29.484Z,96.80
2018-04-15T09:53:59.749Z,96.70
2018-04-15T09:56:30.170Z,96.60
2018-04-15T09:58:59.869Z,96.80
2018-04-15T10:01:30.456Z,96.80
2018-04-15T10:04:01.316Z,97.00
2018-04-15T10:06:30.628Z,97.00
2018-04-15T10:08:59.953Z,97.00
2018-04-15T10:11:30.287Z,97.10
2018-04-15T10:14:00.201Z,97.10
2018-04-15T10:16:29.477Z,97.10
2018-04-15T10:18:59.615Z,96.90
2018-04-15T10:21:29.734Z,96.90
2018-04-15T10:23:58.677Z,96.90
2018-04-15T10:26:28.519Z,97.10
2018-04-15T10:28:57.454Z,97.00
2018-04-15T10:31:26.995Z,96.90
2018-04-15T10:33:57.641Z,97.10
2018-04-15T10:36:26.638Z,97.10
2018-04-15T10:38:56.348Z,97.30
2018-04-15T10:41:25.091Z,97.00
2018-04-15T10:43:53.834Z,97.00
2018-04-15T10:46:23.492Z,96.80
2018-04-15T10:48:52.604Z,96.80
2018-04-15T10:51:21.499Z,96.70
2018-04-15T10:53:50.636Z,96.70
2018-04-15T10:56:19.985Z,96.30
2018-04-15T10:58:49.039Z,96.60
2018-04-15T11:01:17.971Z,95.70
2018-04-15T11:03:47.668Z,96.00
2018-04-15T11:06:16.487Z,95.90
2018-04-15T11:08:45.547Z,95.80
2018-04-15T11:11:15.336Z,95.20
2018-04-15T11:13:44.263Z,95.10
2018-04-15T11:16:13.155Z,95.20
2018-04-15T11:18:42.195Z,94.40
2018-04-15T11:21:11.326Z,95.30
2018-04-15T11:23:40.276Z,94.30
2018-04-15T11:26:10.080Z,93.10
2018-04-15T11:28:38.979Z,93.10
2018-04-15T11:31:08.807Z,92.20
2018-04-15T11:33:37.946Z,92.10
2018-04-15T11:36:07.859Z,92.70
2018-04-15T11:38:36.930Z,91.70
2018-04-15T11:41:06.007Z,91.00
2018-04-15T11:43:34.951Z,92.30
2018-04-15T11:46:03.959Z,91.60
2018-04-15T11:48:33.599Z,91.90
2018-04-15T11:51:03.575Z,90.50
2018-04-15T11:53:32.684Z,90.50
2018-04-15T11:56:01.761Z,91.30
2018-04-15T11:58:30.818Z,90.80
2018-04-15T12:00:59.871Z,91.10
2018-04-15T12:03:28.839Z,90.70
2018-04-15T12:05:58.598Z,89.00
2018-04-15T12:08:27.464Z,88.90
2018-04-15T12:10:57.184Z,84.50
2018-04-15T12:13:27.416Z,84.70
2018-04-15T12:15:57.030Z,85.00
2018-04-15T12:18:25.895Z,85.00
2018-04-15T12:20:54.717Z,86.30
2018-04-15T12:23:29.261Z,90.10
2018-04-15T12:25:57.731Z,86.30
2018-04-15T12:28:26.500Z,85.10
2018-04-15T12:30:55.563Z,85.70
2018-04-15T12:33:24.301Z,84.80
2018-04-15T12:35:53.127Z,81.40
2018-04-15T12:38:21.988Z,82.30
2018-04-15T12:40:50.637Z,80.30
2018-04-15T12:43:19.331Z,77.90
2018-04-15T12:45:49.083Z,79.00
2018-04-15T12:48:18.033Z,78.30
2018-04-15T12:50:46.695Z,79.70
2018-04-15T12:53:16.425Z,79.00
2018-04-15T12:55:45.497Z,79.10
2018-04-15T12:58:14.555Z,78.80
2018-04-15T13:00:44.432Z,79.90
2018-04-15T13:03:13.906Z,79.00
2018-04-15T13:05:42.723Z,80.20
2018-04-15T13:08:11.611Z,83.10
2018-04-15T13:10:40.846Z,81.40
2018-04-15T13:13:09.705Z,81.30
2018-04-15T13:15:38.633Z,79.10
2018-04-15T13:18:07.602Z,79.30
2018-04-15T13:20:37.343Z,80.40
2018-04-15T13:23:06.395Z,80.30
2018-04-15T13:25:36.164Z,80.70
2018-04-15T13:28:04.998Z,80.70
2018-04-15T13:30:34.666Z,83.80
2018-04-15T13:33:04.499Z,80.50
2018-04-15T13:35:34.289Z,80.50
2018-04-15T13:38:03.168Z,80.40
2018-04-15T13:40:32.898Z,79.70
2018-04-15T13:43:02.100Z,81.80
2018-04-15T13:45:30.961Z,81.80
2018-04-15T13:47:59.926Z,83.20
2018-04-15T13:50:28.868Z,82.80
2018-04-15T13:52:57.513Z,82.80
2018-04-15T13:55:26.310Z,83.50
2018-04-15T13:57:55.275Z,84.50
2018-04-15T14:00:24.118Z,83.80
2018-04-15T14:02:53.010Z,81.40
2018-04-15T14:05:22.510Z,83.50
2018-04-15T14:07:51.365Z,83.50
2018-04-15T14:10:20.928Z,84.30
2018-04-15T14:12:49.807Z,84.30
2018-04-15T14:15:19.447Z,85.00
2018-04-15T14:17:49.273Z,85.00
2018-04-15T14:20:18.167Z,85.20
2018-04-15T14:22:47.748Z,85.20
2018-04-15T14:25:17.584Z,84.50
2018-04-15T14:27:46.393Z,84.60
2018-04-15T14:30:15.380Z,84.20
2018-04-15T14:32:43.766Z,81.90
2018-04-15T14:35:12.406Z,82.30
2018-04-15T14:37:41.095Z,81.90
2018-04-15T14:40:10.665Z,80.10
2018-04-15T14:42:40.295Z,81.80
2018-04-15T14:45:09.418Z,81.70
2018-04-15T14:47:38.069Z,83.20
2018-04-15T14:50:07.675Z,81.50
2018-04-15T14:52:36.566Z,81.40
2018-04-15T14:55:05.399Z,81.60
2018-04-15T14:57:34.329Z,82.60
2018-04-15T15:00:03.306Z,81.80
2018-04-15T15:02:32.229Z,82.90
2018-04-15T15:05:01.209Z,82.80
2018-04-15T15:07:30.020Z,80.40
2018-04-15T15:09:58.992Z,82.10
2018-04-15T15:12:27.847Z,81.30
2018-04-15T15:14:56.823Z,82.20
2018-04-15T15:17:25.618Z,83.10
2018-04-15T15:19:55.113Z,82.20
2018-04-15T15:22:24.596Z,82.30
2018-04-15T15:24:54.009Z,81.30
2018-04-15T15:27:23.356Z,79.70
2018-04-15T15:29:51.853Z,79.50
2018-04-15T15:32:20.591Z,81.10
2018-04-15T15:34:48.895Z,80.70
2018-04-15T15:37:17.493Z,82.40
2018-04-15T15:39:46.169Z,82.80
2018-04-15T15:42:14.916Z,82.30
2018-04-15T15:44:43.231Z,81.10
2018-04-15T15:47:11.602Z,80.60
2018-04-15T15:49:40.603Z,81.10
2018-04-15T15:52:08.994Z,81.00
2018-04-15T15:54:38.046Z,82.60
2018-04-15T15:57:07.199Z,80.10
2018-04-15T15:59:35.485Z,80.10
2018-04-15T16:02:03.684Z,79.30
2018-04-15T16:04:32.899Z,81.90
2018-04-15T16:07:01.254Z,81.90
2018-04-15T16:09:30.426Z,80.70
2018-04-15T16:11:58.666Z,80.60
2018-04-15T16:14:26.928Z,81.80
2018-04-15T16:16:55.199Z,81.50
2018-04-15T16:19:23.858Z,82.20
2018-04-15T16:21:52.321Z,82.70
2018-04-15T16:24:20.535Z,82.40
2018-04-15T16:26:48.875Z,83.60
2018-04-15T16:29:17.175Z,83.70
2018-04-15T16:31:45.487Z,83.60
2018-04-15T16:34:13.766Z,84.30
2018-04-15T16:36:42.017Z,84.30
2018-04-15T16:39:10.475Z,85.50
2018-04-15T16:41:39.479Z,85.40
2018-04-15T16:44:07.726Z,85.30
2018-04-15T16:46:36.736Z,86.60
2018-04-15T16:49:05.775Z,85.20
2018-04-15T16:51:34.011Z,85.10
2018-04-15T16:54:02.316Z,87.00
2018-04-15T16:56:31.287Z,88.20
2018-04-15T16:58:59.532Z,88.10
2018-04-15T17:01:28.599Z,87.70
2018-04-15T17:03:56.923Z,87.70
2018-04-15T17:06:25.197Z,88.70
2018-04-15T17:08:53.457Z,88.00
2018-04-15T17:11:22.477Z,89.20
2018-04-15T17:13:50.712Z,89.20
2018-04-15T17:16:19.771Z,89.10
2018-04-15T17:18:48.027Z,89.00
2018-04-15T17:21:16.267Z,89.10
2018-04-15T17:23:44.599Z,88.40
2018-04-15T17:26:12.845Z,89.10
2018-04-15T17:28:41.095Z,89.80
2018-04-15T17:31:09.343Z,89.90
2018-04-15T17:33:38.362Z,90.00
2018-04-15T17:36:06.599Z,89.90
2018-04-15T17:38:34.842Z,90.30
2018-04-15T17:41:03.082Z,90.10
2018-04-15T17:43:31.339Z,90.60
2018-04-15T17:46:00.347Z,90.70
2018-04-15T17:48:28.603Z,90.60
2018-04-15T17:50:57.614Z,90.90
2018-04-15T17:53:25.871Z,90.80
2018-04-15T17:55:54.884Z,90.90
2018-04-15T17:58:23.123Z,90.90
2018-04-15T18:00:51.415Z,90.90
2018-04-15T18:03:20.728Z,91.10
2018-04-15T18:05:49.745Z,91.30
2018-04-15T18:08:17.979Z,91.30
2018-04-15T18:10:47.001Z,91.40
2018-04-15T18:13:15.278Z,91.40
2018-04-15T18:15:45.652Z,91.70
2018-04-15T18:18:14.410Z,91.70
2018-04-15T18:20:43.420Z,91.70
2018-04-15T18:23:12.445Z,91.70
2018-04-15T18:25:41.760Z,91.80
2018-04-15T18:28:10.805Z,92.00
2018-04-15T18:30:39.944Z,92.30
2018-04-15T18:33:08.996Z,92.70
2018-04-15T18:35:38.312Z,92.30
2018-04-15T18:38:07.128Z,92.40
2018-04-15T18:40:36.035Z,92.30
2018-04-15T18:43:04.825Z,92.10
2018-04-15T18:45:34.003Z,92.30
2018-04-15T18:48:03.049Z,92.30
2018-04-15T18:50:31.829Z,92.60
2018-04-15T18:53:01.450Z,92.70
2018-04-15T18:55:30.961Z,92.90
2018-04-15T18:57:59.702Z,92.90
2018-04-15T19:00:28.686Z,93.00
2018-04-15T19:02:58.307Z,93.00
2018-04-15T19:05:27.876Z,93.00
2018-04-15T19:07:56.685Z,93.00
2018-04-15T19:10:27.255Z,93.00
2018-04-15T19:12:56.882Z,93.50
2018-04-15T19:15:25.710Z,93.50
2018-04-15T19:17:54.793Z,93.50
2018-04-15T19:20:23.789Z,93.60
2018-04-15T19:22:52.622Z,93.80
2018-04-15T19:25:21.458Z,93.80
2018-04-15T19:27:50.168Z,93.60
2018-04-15T19:30:19.721Z,94.00
2018-04-15T19:32:48.438Z,93.90
2018-04-15T19:35:17.030Z,94.10
2018-04-15T19:37:45.757Z,94.10
2018-04-15T19:40:14.569Z,94.10
2018-04-15T19:42:43.611Z,94.10
2018-04-15T19:45:13.048Z,94.30
2018-04-15T19:47:41.937Z,94.30
2018-04-15T19:50:10.821Z,94.10
2018-04-15T19:52:39.731Z,94.20
2018-04-15T19:55:08.223Z,94.40
2018-04-15T19:57:37.182Z,94.50
2018-04-15T20:00:06.088Z,94.50
2018-04-15T20:02:34.934Z,94.50
2018-04-15T20:05:04.330Z,94.40
2018-04-15T20:07:33.098Z,94.40
2018-04-15T20:10:01.887Z,94.30
2018-04-15T20:12:30.748Z,94.30
2018-04-15T20:14:59.545Z,94.10
2018-04-15T20:17:28.414Z,94.20
2018-04-15T20:19:57.150Z,94.30
2018-04-15T20:22:25.902Z,94.50
2018-04-15T20:24:54.563Z,94.90
2018-04-15T20:27:22.843Z,94.60
2018-04-15T20:29:51.091Z,94.70
2018-04-15T20:32:20.487Z,94.60
2018-04-15T20:34:48.707Z,94.50
2018-04-15T20:37:16.971Z,94.50
2018-04-15T20:39:45.206Z,95.10
2018-04-15T20:42:13.447Z,94.90
2018-04-15T20:44:41.704Z,95.20
2018-04-15T20:47:09.943Z,95.00
2018-04-15T20:49:38.968Z,94.90
2018-04-15T20:52:07.213Z,94.90
2018-04-15T20:54:36.230Z,95.40
2018-04-15T20:57:04.482Z,95.40
2018-04-15T20:59:33.504Z,94.80
2018-04-15T21:02:01.752Z,94.80
2018-04-15T21:04:30.790Z,94.90
2018-04-15T21:06:59.039Z,94.90
2018-04-15T21:09:28.215Z,95.10
2018-04-15T21:11:56.465Z,95.50
2018-04-15T21:14:24.707Z,95.50
2018-04-15T21:16:52.953Z,95.50
2018-04-15T21:19:21.199Z,95.40
2018-04-15T21:21:50.205Z,95.90
2018-04-15T21:24:18.467Z,95.90
2018-04-15T21:26:47.468Z,95.60
2018-04-15T21:29:15.739Z,95.50
2018-04-15T21:31:44.745Z,95.50
2018-04-15T21:34:12.998Z,95.50
2018-04-15T21:36:42.013Z,96.30
2018-04-15T21:39:10.268Z,96.30
2018-04-15T21:41:39.282Z,96.20
2018-04-15T21:44:07.936Z,96.20
2018-04-15T21:46:36.948Z,95.60
2018-04-15T21:49:05.207Z,95.60
2018-04-15T21:51:34.216Z,95.20
2018-04-15T21:54:02.475Z,95.20
2018-04-15T21:56:31.487Z,96.20
2018-04-15T21:58:59.748Z,96.20
2018-04-15T22:01:28.754Z,96.10
2018-04-15T22:03:57.011Z,96.10
2018-04-15T22:06:26.017Z,96.30
2018-04-15T22:08:54.275Z,96.30
2018-04-15T22:11:35.135Z,96.00
2018-04-15T22:14:04.162Z,96.10
2018-04-15T22:16:32.410Z,96.10
2018-04-15T22:19:01.461Z,96.50
2018-04-15T22:21:30.781Z,96.40
2018-04-15T22:26:34.358Z,96.50
2018-04-15T22:29:02.616Z,96.30
2018-04-15T22:31:30.856Z,96.30
2018-04-15T22:33:59.859Z,96.30
2018-04-15T22:36:28.114Z,96.30
2018-04-15T22:38:57.164Z,96.30
2018-04-15T22:41:26.142Z,96.20
2018-04-15T22:43:54.381Z,96.10
2018-04-15T22:46:23.395Z,96.10
2018-04-15T22:48:56.581Z,96.10
2018-04-15T22:51:25.595Z,96.20
2018-04-15T22:53:53.843Z,96.20
2018-04-15T22:56:22.862Z,96.40
2018-04-15T22:58:51.088Z,96.40
2018-04-15T23:01:20.132Z,96.20
2018-04-15T23:03:48.365Z,96.20
2018-04-15T23:06:17.383Z,96.50
2018-04-15T23:08:45.617Z,96.50
2018-04-15T23:11:14.636Z,96.50
2018-04-15T23:13:42.864Z,96.70
2018-04-15T23:16:11.115Z,96.50
2018-04-15T23:18:39.347Z,96.60
2018-04-15T23:21:08.362Z,97.00
2018-04-15T23:23:36.604Z,97.00
2018-04-15T23:26:05.616Z,96.60
2018-04-15T23:28:33.851Z,96.60
2018-04-15T23:31:02.095Z,96.60
2018-04-15T23:33:30.331Z,96.50
2018-04-15T23:35:59.339Z,96.20
2018-04-15T23:38:27.581Z,96.20
2018-04-15T23:40:56.596Z,95.80
2018-04-15T23:43:24.823Z,95.80
2018-04-15T23:45:53.084Z,95.70
2018-04-15T23:48:21.318Z,95.70
2018-04-15T23:50:49.879Z,96.00
2018-04-15T23:53:18.880Z,97.00
2018-04-15T23:55:47.892Z,97.00
2018-04-15T23:58:16.127Z,97.00
